createdAt,value
2017-05-18T00:02:27.310Z,69.50
2017-05-18T00:04:57.112Z,69.50
2017-05-18T00:07:26.214Z,69.60
2017-05-18T00:09:55.301Z,70.00
2017-05-18T00:12:25.150Z,70.00
2017-05-18T00:14:54.291Z,70.30
2017-05-18T00:17:23.362Z,70.90
2017-05-18T00:19:52.491Z,70.40
2017-05-18T00:22:21.556Z,70.40
2017-05-18T00:24:50.674Z,70.50
2017-05-18T00:27:19.760Z,70.60
2017-05-18T00:29:48.885Z,70.70
2017-05-18T00:32:17.947Z,70.80
2017-05-18T00:34:47.076Z,70.90
2017-05-18T00:37:16.893Z,70.90
2017-05-18T00:39:46.004Z,71.10
2017-05-18T00:42:15.803Z,71.10
2017-05-18T00:44:44.935Z,71.40
2017-05-18T00:47:13.994Z,71.40
2017-05-18T00:49:43.121Z,71.60
2017-05-18T00:52:12.511Z,71.50
2017-05-18T00:54:41.614Z,71.60
2017-05-18T00:57:10.691Z,71.70
2017-05-18T00:59:40.370Z,71.70
2017-05-18T01:02:09.440Z,71.80
2017-05-18T01:04:38.563Z,71.90
2017-05-18T01:07:08.382Z,71.80
2017-05-18T01:09:37.471Z,72.10
2017-05-18T01:12:07.280Z,73.10
2017-05-18T01:14:37.131Z,72.40
2017-05-18T01:17:06.246Z,72.40
2017-05-18T01:19:35.312Z,72.50
2017-05-18T01:22:04.427Z,72.60
2017-05-18T01:24:33.496Z,72.70
2017-05-18T01:27:02.596Z,72.80
2017-05-18T01:29:31.699Z,72.90
2017-05-18T01:32:00.808Z,72.90
2017-05-18T01:34:29.877Z,72.80
2017-05-18T01:36:58.984Z,72.70
2017-05-18T01:39:28.099Z,73.00
2017-05-18T01:41:57.172Z,73.00
2017-05-18T01:44:26.317Z,73.00
2017-05-18T01:46:55.378Z,72.90
2017-05-18T01:49:24.515Z,73.10
2017-05-18T01:51:53.639Z,73.10
2017-05-18T01:54:22.727Z,73.20
2017-05-18T01:56:52.578Z,73.30
2017-05-18T01:59:21.643Z,73.50
2017-05-18T02:01:51.067Z,73.50
2017-05-18T02:04:20.151Z,73.80
2017-05-18T02:06:49.263Z,73.70
2017-05-18T02:09:18.341Z,73.60
2017-05-18T02:11:47.491Z,73.70
2017-05-18T02:14:17.321Z,73.60
2017-05-18T02:16:46.573Z,73.80
2017-05-18T02:19:15.632Z,73.80
2017-05-18T02:21:45.477Z,73.80
2017-05-18T02:24:14.527Z,74.20
2017-05-18T02:26:43.650Z,74.10
2017-05-18T02:29:12.719Z,74.20
2017-05-18T02:31:42.560Z,74.40
2017-05-18T02:34:11.631Z,74.60
2017-05-18T02:36:40.754Z,74.80
2017-05-18T02:39:09.838Z,74.60
2017-05-18T02:41:38.979Z,74.50
2017-05-18T02:44:08.062Z,74.60
2017-05-18T02:46:37.177Z,74.60
2017-05-18T02:49:07.046Z,74.80
2017-05-18T02:51:36.132Z,74.60
2017-05-18T02:54:05.234Z,74.70
2017-05-18T02:56:34.335Z,74.80
2017-05-18T02:59:03.399Z,74.80
2017-05-18T03:01:32.507Z,74.90
2017-05-18T03:04:01.608Z,75.00
2017-05-18T03:06:30.706Z,74.70
2017-05-18T03:08:59.798Z,74.60
2017-05-18T03:11:28.871Z,74.40
2017-05-18T03:13:57.980Z,74.50
2017-05-18T03:16:27.132Z,74.50
2017-05-18T03:18:56.207Z,74.40
2017-05-18T03:21:25.316Z,74.50
2017-05-18T03:23:54.417Z,74.70
2017-05-18T03:26:23.490Z,74.80
2017-05-18T03:28:53.399Z,74.90
2017-05-18T03:31:22.467Z,75.00
2017-05-18T03:33:51.584Z,75.10
2017-05-18T03:36:20.705Z,75.00
2017-05-18T03:38:49.776Z,75.20
2017-05-18T03:41:18.909Z,75.40
2017-05-18T03:43:48.727Z,75.30
2017-05-18T03:46:18.575Z,75.30
2017-05-18T03:48:47.647Z,75.40
2017-05-18T03:51:16.744Z,75.20
2017-05-18T03:53:45.896Z,74.80
2017-05-18T03:56:14.940Z,74.80
2017-05-18T03:58:44.067Z,74.30
2017-05-18T04:01:13.130Z,73.90
2017-05-18T04:03:42.252Z,73.90
2017-05-18T04:06:11.323Z,73.80
2017-05-18T04:08:40.419Z,74.00
2017-05-18T04:11:09.495Z,73.60
2017-05-18T04:13:38.605Z,73.40
2017-05-18T04:16:07.671Z,73.30
2017-05-18T04:18:37.519Z,73.30
2017-05-18T04:21:06.575Z,73.00
2017-05-18T04:23:35.678Z,72.80
2017-05-18T04:26:05.480Z,72.70
2017-05-18T04:28:34.640Z,72.40
2017-05-18T04:31:03.700Z,72.50
2017-05-18T04:33:32.827Z,72.40
2017-05-18T04:36:01.894Z,72.30
2017-05-18T04:38:31.001Z,72.50
2017-05-18T04:41:00.072Z,72.20
2017-05-18T04:43:29.167Z,72.30
2017-05-18T04:45:58.243Z,72.30
2017-05-18T04:48:27.342Z,72.40
2017-05-18T04:50:57.208Z,71.90
2017-05-18T04:53:26.500Z,72.00
2017-05-18T04:55:55.639Z,71.80
2017-05-18T04:58:25.516Z,71.30
2017-05-18T05:00:54.587Z,71.70
2017-05-18T05:03:23.762Z,71.50
2017-05-18T05:05:52.868Z,70.70
2017-05-18T05:08:21.994Z,70.40
2017-05-18T05:10:51.086Z,70.40
2017-05-18T05:13:20.349Z,69.90
2017-05-18T05:15:49.498Z,70.00
2017-05-18T05:18:19.358Z,69.70
2017-05-18T05:20:48.466Z,70.50
2017-05-18T05:23:17.544Z,69.70
2017-05-18T05:25:47.387Z,69.10
2017-05-18T05:28:16.475Z,68.70
2017-05-18T05:30:46.058Z,68.60
2017-05-18T05:33:15.135Z,68.10
2017-05-18T05:35:44.236Z,68.50
2017-05-18T05:38:13.383Z,68.20
2017-05-18T05:40:42.455Z,67.90
2017-05-18T05:43:11.561Z,67.60
2017-05-18T05:45:40.671Z,67.60
2017-05-18T05:48:09.789Z,67.40
2017-05-18T05:50:39.615Z,67.50
2017-05-18T05:53:08.780Z,67.00
2017-05-18T05:55:37.968Z,66.80
2017-05-18T05:58:07.084Z,66.00
2017-05-18T06:00:36.210Z,66.00
2017-05-18T06:03:05.328Z,66.10
2017-05-18T06:05:34.444Z,65.80
2017-05-18T06:08:03.536Z,65.30
2017-05-18T06:10:32.691Z,65.20
2017-05-18T06:13:01.778Z,65.10
2017-05-18T06:15:31.702Z,64.70
2017-05-18T06:18:00.744Z,64.40
2017-05-18T06:20:29.874Z,64.30
2017-05-18T06:22:58.959Z,64.40
2017-05-18T06:25:28.858Z,63.50
2017-05-18T06:27:57.951Z,64.10
2017-05-18T06:30:27.071Z,63.60
2017-05-18T06:32:56.185Z,63.40
2017-05-18T06:35:26.042Z,63.40
2017-05-18T06:37:55.164Z,63.10
2017-05-18T06:40:25.001Z,63.60
2017-05-18T06:42:54.896Z,63.00
2017-05-18T06:45:23.983Z,63.00
2017-05-18T06:47:53.090Z,62.60
2017-05-18T06:50:22.241Z,62.40
2017-05-18T06:52:51.321Z,62.40
2017-05-18T06:55:20.440Z,61.40
2017-05-18T06:57:49.555Z,61.70
2017-05-18T07:00:18.650Z,61.70
2017-05-18T07:02:47.773Z,61.40
2017-05-18T07:05:16.858Z,60.30
2017-05-18T07:07:45.983Z,60.00
2017-05-18T07:10:15.068Z,61.10
2017-05-18T07:12:44.264Z,59.70
2017-05-18T07:15:13.356Z,59.90
2017-05-18T07:17:42.574Z,59.60
2017-05-18T07:20:11.643Z,59.40
2017-05-18T07:22:40.807Z,58.70
2017-05-18T07:25:09.922Z,58.60
2017-05-18T07:27:39.013Z,58.40
2017-05-18T07:30:08.110Z,58.80
2017-05-18T07:32:37.942Z,58.10
2017-05-18T07:35:07.826Z,58.00
2017-05-18T07:37:36.911Z,58.20
2017-05-18T07:40:06.064Z,58.10
2017-05-18T07:42:35.148Z,58.40
2017-05-18T07:45:04.983Z,58.00
2017-05-18T07:47:34.073Z,58.00
2017-05-18T07:50:03.171Z,57.80
2017-05-18T07:52:32.312Z,57.80
2017-05-18T07:55:01.426Z,57.80
2017-05-18T07:57:30.574Z,57.70
2017-05-18T07:59:59.752Z,57.80
2017-05-18T08:02:28.919Z,57.10
2017-05-18T08:04:58.791Z,56.90
2017-05-18T08:07:27.874Z,56.90
2017-05-18T08:09:57.003Z,56.90
2017-05-18T08:12:26.075Z,56.60
2017-05-18T08:14:55.200Z,56.90
2017-05-18T08:17:24.304Z,56.70
2017-05-18T08:19:54.163Z,56.90
2017-05-18T08:22:23.238Z,56.80
2017-05-18T08:24:52.375Z,56.50
2017-05-18T08:27:21.516Z,56.30
2017-05-18T08:29:50.618Z,55.60
2017-05-18T08:32:19.736Z,55.80
2017-05-18T08:34:48.815Z,55.20
2017-05-18T08:37:17.961Z,54.90
2017-05-18T08:39:47.863Z,55.00
2017-05-18T08:42:16.960Z,55.20
2017-05-18T08:44:46.863Z,54.70
2017-05-18T08:47:15.947Z,54.80
2017-05-18T08:49:45.095Z,49.70
2017-05-18T08:52:14.252Z,48.10
2017-05-18T08:54:43.392Z,47.80
2017-05-18T08:57:12.478Z,47.70
2017-05-18T08:59:41.709Z,47.80
2017-05-18T09:02:10.770Z,47.70
2017-05-18T09:04:40.154Z,47.30
2017-05-18T09:07:09.992Z,47.30
2017-05-18T09:09:39.951Z,45.90
2017-05-18T09:12:09.840Z,45.50
2017-05-18T09:14:39.019Z,45.40
2017-05-18T09:17:08.099Z,46.10
2017-05-18T09:19:37.985Z,45.60
2017-05-18T09:22:07.825Z,45.80
2017-05-18T09:24:36.958Z,45.90
2017-05-18T09:27:06.111Z,45.50
2017-05-18T09:29:35.939Z,45.30
2017-05-18T09:32:05.140Z,45.70
2017-05-18T09:34:34.246Z,45.70
2017-05-18T09:37:03.378Z,45.60
2017-05-18T09:39:32.498Z,45.90
2017-05-18T09:42:01.651Z,45.90
2017-05-18T09:44:30.776Z,45.90
2017-05-18T09:46:59.920Z,45.70
2017-05-18T09:49:29.000Z,46.00
2017-05-18T09:51:58.123Z,45.90
2017-05-18T09:54:27.274Z,45.90
2017-05-18T09:56:56.349Z,45.60
2017-05-18T09:59:25.452Z,45.90
2017-05-18T10:01:54.566Z,45.60
2017-05-18T10:04:24.834Z,46.20
2017-05-18T10:06:53.939Z,47.00
2017-05-18T10:09:23.069Z,47.40
2017-05-18T10:11:52.157Z,46.70
2017-05-18T10:14:21.303Z,46.50
2017-05-18T10:16:50.454Z,47.90
2017-05-18T10:19:19.575Z,47.60
2017-05-18T10:21:49.461Z,48.30
2017-05-18T10:24:18.547Z,48.40
2017-05-18T10:26:47.679Z,48.70
2017-05-18T10:29:16.804Z,48.30
2017-05-18T10:31:46.203Z,48.20
2017-05-18T10:34:15.328Z,46.70
2017-05-18T10:36:44.456Z,47.90
2017-05-18T10:39:14.382Z,47.90
2017-05-18T10:41:43.465Z,47.90
2017-05-18T10:44:13.341Z,48.00
2017-05-18T10:46:42.513Z,49.00
2017-05-18T10:49:11.570Z,48.40
2017-05-18T10:51:40.774Z,48.60
2017-05-18T10:54:09.850Z,49.10
2017-05-18T10:56:39.097Z,48.50
2017-05-18T10:59:08.227Z,48.50
2017-05-18T11:01:37.434Z,47.80
2017-05-18T11:04:06.559Z,48.20
2017-05-18T11:06:35.728Z,48.50
2017-05-18T11:09:05.082Z,48.60
2017-05-18T11:11:34.281Z,48.40
2017-05-18T11:14:03.603Z,48.50
2017-05-18T11:16:32.771Z,48.80
2017-05-18T11:19:01.915Z,49.10
2017-05-18T11:21:31.347Z,48.40
2017-05-18T11:24:00.694Z,48.00
2017-05-18T11:26:29.853Z,48.10
2017-05-18T11:28:58.961Z,47.50
2017-05-18T11:31:28.138Z,47.70
2017-05-18T11:33:57.228Z,47.40
2017-05-18T11:36:26.360Z,48.00
2017-05-18T11:38:55.462Z,48.10
2017-05-18T11:41:24.580Z,47.60
2017-05-18T11:43:53.720Z,46.80
2017-05-18T11:46:29.536Z,46.60
2017-05-18T11:48:58.631Z,46.90
2017-05-18T11:51:28.374Z,46.60
2017-05-18T11:53:57.459Z,46.40
2017-05-18T11:56:27.280Z,46.10
2017-05-18T11:58:56.451Z,46.90
2017-05-18T12:01:25.605Z,47.30
2017-05-18T12:03:54.743Z,47.50
2017-05-18T12:06:23.877Z,47.80
2017-05-18T12:08:53.053Z,48.20
2017-05-18T12:11:22.184Z,47.80
2017-05-18T12:13:51.380Z,47.90
2017-05-18T12:16:20.508Z,48.40
2017-05-18T12:18:49.640Z,46.80
2017-05-18T12:21:18.799Z,47.70
2017-05-18T12:23:47.943Z,47.60
2017-05-18T12:26:17.029Z,48.00
2017-05-18T12:28:46.184Z,47.40
2017-05-18T12:31:15.260Z,47.00
2017-05-18T12:33:44.398Z,46.80
2017-05-18T12:36:13.504Z,46.00
2017-05-18T12:38:43.665Z,45.40
2017-05-18T12:41:13.140Z,45.70
2017-05-18T12:43:43.032Z,46.50
2017-05-18T12:46:12.364Z,46.80
2017-05-18T12:48:41.524Z,46.70
2017-05-18T12:51:10.628Z,46.20
2017-05-18T12:53:39.869Z,46.30
2017-05-18T12:56:09.004Z,45.60
2017-05-18T12:58:38.110Z,46.10
2017-05-18T13:01:07.249Z,46.40
2017-05-18T13:03:36.376Z,46.40
2017-05-18T13:06:05.516Z,46.40
2017-05-18T13:08:35.380Z,46.50
2017-05-18T13:11:04.459Z,46.90
2017-05-18T13:13:33.601Z,45.90
2017-05-18T13:16:02.772Z,45.20
2017-05-18T13:18:31.911Z,45.70
2017-05-18T13:21:01.035Z,45.20
2017-05-18T13:23:30.203Z,45.10
2017-05-18T13:25:59.328Z,44.00
2017-05-18T13:28:28.514Z,44.20
2017-05-18T13:30:57.687Z,43.40
2017-05-18T13:33:27.542Z,43.40
2017-05-18T13:35:57.519Z,43.50
2017-05-18T13:38:26.616Z,43.20
2017-05-18T13:40:55.774Z,43.30
2017-05-18T13:43:24.890Z,43.10
2017-05-18T13:45:54.015Z,43.70
2017-05-18T13:48:23.135Z,44.20
2017-05-18T13:50:52.251Z,43.60
2017-05-18T13:53:21.359Z,44.00
2017-05-18T13:55:50.487Z,43.80
2017-05-18T13:58:19.540Z,43.90
2017-05-18T14:00:48.657Z,43.00
2017-05-18T14:03:17.771Z,43.30
2017-05-18T14:05:47.630Z,43.60
2017-05-18T14:08:16.729Z,44.30
2017-05-18T14:10:45.843Z,44.30
2017-05-18T14:13:14.920Z,43.70
2017-05-18T14:15:44.048Z,44.00
2017-05-18T14:18:13.127Z,43.10
2017-05-18T14:20:42.257Z,42.50
2017-05-18T14:23:11.344Z,42.70
2017-05-18T14:25:41.246Z,42.40
2017-05-18T14:28:10.327Z,41.90
2017-05-18T14:30:39.577Z,41.10
2017-05-18T14:33:08.680Z,40.30
2017-05-18T14:35:37.810Z,40.40
2017-05-18T14:38:06.935Z,40.50
2017-05-18T14:40:36.033Z,40.50
2017-05-18T14:43:05.107Z,40.70
2017-05-18T14:45:34.223Z,41.10
2017-05-18T14:48:03.343Z,41.80
2017-05-18T14:50:32.455Z,42.30
2017-05-18T14:53:01.535Z,42.70
2017-05-18T14:55:30.671Z,43.20
2017-05-18T14:57:59.789Z,44.10
2017-05-18T15:00:29.621Z,44.60
2017-05-18T15:02:59.655Z,45.20
2017-05-18T15:05:28.731Z,45.90
2017-05-18T15:07:57.882Z,47.60
2017-05-18T15:10:26.962Z,53.60
2017-05-18T15:12:56.131Z,57.60
2017-05-18T15:15:25.229Z,63.40
2017-05-18T15:17:54.309Z,69.30
2017-05-18T15:20:24.128Z,70.80
2017-05-18T15:22:53.211Z,75.00
2017-05-18T15:25:22.373Z,76.40
2017-05-18T15:27:52.210Z,81.40
2017-05-18T15:30:21.363Z,82.90
2017-05-18T15:32:50.437Z,84.60
2017-05-18T15:35:19.557Z,88.60
2017-05-18T15:37:48.616Z,90.30
2017-05-18T15:40:17.738Z,92.80
2017-05-18T15:42:47.002Z,93.90
2017-05-18T15:45:16.168Z,95.10
2017-05-18T15:47:45.298Z,96.00
2017-05-18T15:50:14.423Z,95.20
2017-05-18T15:52:43.495Z,95.50
2017-05-18T15:55:12.628Z,96.00
2017-05-18T15:57:41.784Z,96.40
2017-05-18T16:00:10.864Z,95.90
2017-05-18T16:02:40.059Z,96.10
2017-05-18T16:05:09.412Z,94.80
2017-05-18T16:07:38.571Z,95.10
2017-05-18T16:10:08.593Z,95.60
2017-05-18T16:12:37.822Z,96.00
2017-05-18T16:15:06.960Z,96.80
2017-05-18T16:17:36.043Z,97.50
2017-05-18T16:20:05.542Z,97.50
2017-05-18T16:22:34.647Z,97.80
2017-05-18T16:25:04.245Z,98.10
2017-05-18T16:27:33.389Z,98.30
2017-05-18T16:30:02.524Z,98.00
2017-05-18T16:32:32.408Z,98.20
2017-05-18T16:35:01.498Z,97.60
2017-05-18T16:37:30.620Z,97.80
2017-05-18T16:39:59.714Z,98.00
2017-05-18T16:42:28.823Z,97.70
2017-05-18T16:44:58.021Z,97.50
2017-05-18T16:47:26.360Z,97.40
2017-05-18T16:49:55.440Z,98.20
2017-05-18T16:52:24.575Z,97.80
2017-05-18T16:54:53.683Z,97.60
2017-05-18T16:57:22.788Z,97.90
2017-05-18T16:59:51.980Z,97.50
2017-05-18T17:02:21.126Z,97.10
2017-05-18T17:04:50.285Z,97.40
2017-05-18T17:07:19.435Z,98.30
2017-05-18T17:09:50.147Z,98.50
2017-05-18T17:12:19.361Z,98.50
2017-05-18T17:14:48.487Z,97.90
2017-05-18T17:17:17.835Z,97.00
2017-05-18T17:19:46.983Z,97.70
2017-05-18T17:22:16.071Z,96.70
2017-05-18T17:24:46.013Z,96.50
2017-05-18T17:27:15.859Z,96.60
2017-05-18T17:29:45.024Z,96.20
2017-05-18T17:32:14.196Z,96.60
2017-05-18T17:34:43.374Z,97.00
2017-05-18T17:37:12.571Z,97.70
2017-05-18T17:39:41.738Z,97.10
2017-05-18T17:42:10.902Z,97.70
2017-05-18T17:44:40.006Z,96.50
2017-05-18T17:47:09.220Z,96.00
2017-05-18T17:49:38.432Z,95.90
2017-05-18T17:52:07.570Z,96.80
2017-05-18T17:54:36.741Z,96.70
2017-05-18T17:57:05.891Z,96.50
2017-05-18T17:59:35.079Z,96.60
2017-05-18T18:02:04.313Z,96.70
2017-05-18T18:04:33.537Z,97.10
2017-05-18T18:07:02.722Z,97.10
2017-05-18T18:09:31.930Z,96.30
2017-05-18T18:12:01.079Z,96.30
2017-05-18T18:14:30.386Z,97.00
2017-05-18T18:16:59.579Z,97.50
2017-05-18T18:19:28.792Z,96.50
2017-05-18T18:21:57.940Z,96.80
2017-05-18T18:24:27.152Z,97.10
2017-05-18T18:26:56.316Z,97.00
2017-05-18T18:29:25.403Z,96.70
2017-05-18T18:31:55.384Z,96.20
2017-05-18T18:34:24.494Z,96.30
2017-05-18T18:36:53.643Z,96.20
2017-05-18T18:39:23.488Z,95.70
2017-05-18T18:41:52.640Z,95.30
2017-05-18T18:44:21.703Z,95.90
2017-05-18T18:46:50.804Z,96.70
2017-05-18T18:49:19.982Z,97.10
2017-05-18T18:51:49.372Z,97.30
2017-05-18T18:54:18.445Z,97.30
2017-05-18T18:56:48.328Z,97.60
2017-05-18T18:59:17.423Z,97.40
2017-05-18T19:01:46.520Z,97.50
2017-05-18T19:04:16.517Z,97.00
2017-05-18T19:06:45.727Z,96.90
2017-05-18T19:09:14.970Z,97.10
2017-05-18T19:11:44.149Z,96.60
2017-05-18T19:14:13.534Z,96.90
2017-05-18T19:16:42.627Z,96.80
2017-05-18T19:19:11.756Z,97.00
2017-05-18T19:21:41.603Z,97.10
2017-05-18T19:24:10.668Z,97.20
2017-05-18T19:26:40.092Z,96.80
2017-05-18T19:29:09.200Z,97.20
2017-05-18T19:31:38.391Z,97.20
2017-05-18T19:34:07.495Z,96.90
2017-05-18T19:36:36.677Z,95.10
2017-05-18T19:39:05.939Z,95.70
2017-05-18T19:41:35.806Z,96.20
2017-05-18T19:44:04.878Z,96.40
2017-05-18T19:46:34.018Z,96.70
2017-05-18T19:49:03.087Z,97.10
2017-05-18T19:51:32.237Z,97.00
2017-05-18T19:54:02.071Z,97.20
2017-05-18T19:56:31.208Z,97.20
2017-05-18T19:59:00.301Z,97.50
2017-05-18T20:01:29.431Z,96.90
2017-05-18T20:03:58.546Z,97.40
2017-05-18T20:06:27.678Z,97.40
2017-05-18T20:08:56.819Z,97.40
2017-05-18T20:11:25.915Z,97.40
2017-05-18T20:13:55.894Z,97.60
2017-05-18T20:16:25.061Z,97.10
2017-05-18T20:18:54.188Z,97.70
2017-05-18T20:21:23.362Z,97.30
2017-05-18T20:23:52.665Z,97.40
2017-05-18T20:26:21.920Z,97.30
2017-05-18T20:28:51.788Z,97.30
2017-05-18T20:31:20.864Z,97.10
2017-05-18T20:33:49.992Z,97.30
2017-05-18T20:36:19.073Z,96.90
2017-05-18T20:38:48.232Z,96.90
2017-05-18T20:41:17.348Z,97.40
2017-05-18T20:43:46.511Z,97.30
2017-05-18T20:46:15.950Z,97.50
2017-05-18T20:48:45.010Z,97.10
2017-05-18T20:51:14.123Z,97.00
2017-05-18T20:53:43.210Z,97.30
2017-05-18T20:56:12.629Z,96.60
2017-05-18T20:58:41.719Z,96.70
2017-05-18T21:01:10.861Z,96.80
2017-05-18T21:03:40.730Z,97.10
2017-05-18T21:06:09.818Z,97.50
2017-05-18T21:08:38.915Z,97.10
2017-05-18T21:11:08.095Z,97.20
2017-05-18T21:13:37.222Z,97.50
2017-05-18T21:16:06.309Z,97.30
2017-05-18T21:18:35.464Z,97.20
2017-05-18T21:21:05.267Z,97.70
2017-05-18T21:23:34.374Z,97.00
2017-05-18T21:26:03.427Z,97.40
2017-05-18T21:28:32.539Z,96.70
2017-05-18T21:31:01.604Z,96.60
2017-05-18T21:33:30.714Z,96.70
2017-05-18T21:35:59.852Z,97.30
2017-05-18T21:38:28.914Z,96.90
2017-05-18T21:40:57.994Z,97.00
2017-05-18T21:43:27.878Z,97.20
2017-05-18T21:45:56.950Z,96.80
2017-05-18T21:48:26.072Z,97.00
2017-05-18T21:50:55.163Z,97.30
2017-05-18T21:53:24.219Z,97.00
2017-05-18T21:55:54.537Z,97.30
2017-05-18T21:58:24.343Z,97.70
2017-05-18T22:00:54.198Z,97.30
2017-05-18T22:03:23.268Z,97.60
2017-05-18T22:05:53.123Z,97.60
2017-05-18T22:08:22.198Z,96.90
2017-05-18T22:10:51.309Z,96.80
2017-05-18T22:13:20.450Z,97.30
2017-05-18T22:15:49.558Z,97.40
2017-05-18T22:18:19.417Z,97.60
2017-05-18T22:20:48.504Z,97.60
2017-05-18T22:23:17.637Z,97.30
2017-05-18T22:25:46.710Z,97.30
2017-05-18T22:28:15.838Z,97.30
2017-05-18T22:30:44.915Z,97.00
2017-05-18T22:33:14.066Z,97.30
2017-05-18T22:35:43.131Z,97.20
2017-05-18T22:38:12.980Z,96.90
2017-05-18T22:40:42.066Z,96.70
2017-05-18T22:43:11.178Z,97.20
2017-05-18T22:45:40.304Z,97.40
2017-05-18T22:48:09.367Z,97.20
2017-05-18T22:50:38.479Z,97.30
2017-05-18T22:53:07.587Z,97.20
2017-05-18T22:55:36.654Z,97.10
2017-05-18T22:58:05.753Z,97.00
2017-05-18T23:00:34.855Z,96.90
2017-05-18T23:03:04.243Z,97.10
2017-05-18T23:05:33.370Z,97.20
2017-05-18T23:08:02.491Z,97.30
2017-05-18T23:10:31.550Z,97.40
2017-05-18T23:13:00.651Z,97.20
2017-05-18T23:15:29.705Z,96.90
2017-05-18T23:17:58.793Z,96.90
2017-05-18T23:20:27.930Z,96.80
2017-05-18T23:22:57.019Z,96.90
2017-05-18T23:25:26.127Z,96.80
2017-05-18T23:27:55.191Z,97.00
2017-05-18T23:30:24.279Z,97.30
2017-05-18T23:32:53.374Z,97.00
2017-05-18T23:35:22.442Z,96.90
2017-05-18T23:37:52.291Z,96.70
2017-05-18T23:40:21.357Z,96.50
2017-05-18T23:42:50.495Z,97.00
2017-05-18T23:45:19.602Z,97.10
2017-05-18T23:47:48.710Z,97.20
2017-05-18T23:50:18.536Z,97.20
2017-05-18T23:52:48.383Z,97.50
2017-05-18T23:55:17.455Z,97.00
2017-05-18T23:57:46.554Z,97.10
